createdAt,value
2022-10-16T00:01:29.816Z,99973.78
2022-10-16T00:03:59.115Z,99967.56
2022-10-16T00:06:27.871Z,99972.28
2022-10-16T00:08:56.062Z,99965.41
2022-10-16T00:11:26.442Z,99967.97
2022-10-16T00:13:57.704Z,99965.78
2022-10-16T00:16:25.885Z,99971.72
2022-10-16T00:18:53.499Z,99978.88
2022-10-16T00:21:24.424Z,99967.06
2022-10-16T00:24:10.886Z,99973.19
2022-10-16T00:26:39.594Z,99960.47
2022-10-16T00:29:07.923Z,99970.06
2022-10-16T00:31:35.376Z,99959.13
2022-10-16T00:34:02.637Z,99958.22
2022-10-16T00:36:30.218Z,99960.53
2022-10-16T00:41:33.742Z,99977.25
2022-10-16T00:44:03.390Z,99973.94
2022-10-16T00:46:42.787Z,99993.94
2022-10-16T00:49:16.774Z,99991.59
2022-10-16T00:51:53.594Z,99991.69
2022-10-16T00:54:24.686Z,99995.31
2022-10-16T00:56:53.960Z,99984.50
2022-10-16T00:59:26.127Z,99993.63
2022-10-16T01:01:54.473Z,99995.84
2022-10-16T01:04:22.371Z,99990.13
2022-10-16T01:07:00.271Z,99987.41
2022-10-16T01:09:47.719Z,99989.09
2022-10-16T01:12:38.530Z,99980.84
2022-10-16T01:15:30.679Z,99979.47
2022-10-16T01:18:07.538Z,99982.16
2022-10-16T01:20:48.634Z,99977.28
2022-10-16T01:23:43.312Z,99984.38
2022-10-16T01:26:32.949Z,99983.88
2022-10-16T01:29:00.393Z,99988.06
2022-10-16T01:31:32.852Z,99983.84
2022-10-16T01:34:37.177Z,99988.59
2022-10-16T01:37:10.738Z,99988.41
2022-10-16T01:39:41.037Z,99997.88
2022-10-16T01:42:14.359Z,100004.97
2022-10-16T01:44:42.324Z,100002.44
2022-10-16T01:47:11.803Z,99993.00
2022-10-16T01:49:42.620Z,99999.03
2022-10-16T01:52:18.463Z,100001.78
2022-10-16T01:54:49.902Z,100007.19
2022-10-16T01:57:18.631Z,99991.63
2022-10-16T01:59:51.001Z,99994.53
2022-10-16T02:02:21.456Z,100001.06
2022-10-16T02:04:54.600Z,99995.50
2022-10-16T02:07:21.808Z,99998.22
2022-10-16T02:09:49.413Z,99985.72
2022-10-16T02:12:25.474Z,99982.34
2022-10-16T02:14:54.121Z,99979.81
2022-10-16T02:17:22.168Z,99978.16
2022-10-16T02:19:52.161Z,99986.06
2022-10-16T02:22:41.877Z,99986.56
2022-10-16T02:25:12.159Z,99982.81
2022-10-16T02:28:14.073Z,99980.66
2022-10-16T02:30:43.942Z,99979.94
2022-10-16T02:33:14.731Z,99988.38
2022-10-16T02:35:44.820Z,99979.09
2022-10-16T02:38:13.586Z,99979.25
2022-10-16T02:40:41.879Z,99974.84
2022-10-16T02:43:10.104Z,99981.28
2022-10-16T02:45:37.702Z,99982.63
2022-10-16T02:48:05.368Z,99977.38
2022-10-16T02:50:32.942Z,99980.09
2022-10-16T02:53:00.087Z,99983.47
2022-10-16T02:55:28.851Z,99972.00
2022-10-16T02:57:56.153Z,99986.66
2022-10-16T03:00:23.518Z,99992.25
2022-10-16T03:02:50.992Z,99981.94
2022-10-16T03:05:18.859Z,99984.28
2022-10-16T03:07:46.039Z,99978.91
2022-10-16T03:10:13.555Z,99964.06
2022-10-16T03:12:40.802Z,99967.94
2022-10-16T03:15:08.687Z,99965.56
2022-10-16T03:17:35.943Z,99964.56
2022-10-16T03:20:04.312Z,99963.56
2022-10-16T03:22:31.776Z,99975.84
2022-10-16T03:24:59.180Z,99970.13
2022-10-16T03:27:26.507Z,99974.69
2022-10-16T03:29:54.108Z,99972.50
2022-10-16T03:32:21.422Z,99985.66
2022-10-16T03:34:48.800Z,99979.28
2022-10-16T03:37:16.006Z,99975.41
2022-10-16T03:39:43.439Z,99972.56
2022-10-16T03:42:10.578Z,99962.44
2022-10-16T03:44:37.921Z,99978.63
2022-10-16T03:47:05.279Z,99969.69
2022-10-16T03:49:32.692Z,99969.34
2022-10-16T03:51:59.874Z,99968.16
2022-10-16T03:54:27.307Z,99976.63
2022-10-16T03:56:54.434Z,99974.91
2022-10-16T03:59:21.900Z,99981.31
2022-10-16T04:01:49.048Z,99969.84
2022-10-16T04:04:16.413Z,99960.25
2022-10-16T04:06:43.568Z,99970.88
2022-10-16T04:09:10.901Z,99974.59
2022-10-16T04:11:38.269Z,99983.50
2022-10-16T04:14:05.888Z,99991.09
2022-10-16T04:16:33.055Z,99991.13
2022-10-16T04:19:00.422Z,99996.34
2022-10-16T04:21:27.576Z,99988.94
2022-10-16T04:23:54.970Z,99988.59
2022-10-16T04:26:22.096Z,99996.34
2022-10-16T04:28:49.516Z,99991.13
2022-10-16T04:31:16.770Z,100000.41
2022-10-16T04:33:44.998Z,99997.03
2022-10-16T04:36:12.204Z,99982.66
2022-10-16T04:38:40.637Z,100004.44
2022-10-16T04:41:08.660Z,100003.91
2022-10-16T04:43:36.350Z,100002.22
2022-10-16T04:46:05.686Z,100000.84
2022-10-16T04:48:33.274Z,99995.50
2022-10-16T04:51:00.982Z,99987.88
2022-10-16T04:53:28.430Z,100009.97
2022-10-16T04:55:55.611Z,100003.09
2022-10-16T04:58:24.267Z,100007.31
2022-10-16T05:00:51.454Z,100000.56
2022-10-16T05:03:18.961Z,99999.38
2022-10-16T05:05:47.267Z,99993.47
2022-10-16T05:08:15.902Z,99996.31
2022-10-16T05:10:44.703Z,100004.94
2022-10-16T05:13:12.770Z,100007.81
2022-10-16T05:15:40.133Z,99996.19
2022-10-16T05:18:07.474Z,100002.94
2022-10-16T05:20:34.662Z,100005.94
2022-10-16T05:23:02.208Z,100000.75
2022-10-16T05:25:29.839Z,100008.66
2022-10-16T05:27:57.204Z,100008.66
2022-10-16T05:30:24.614Z,100009.00
2022-10-16T05:32:52.408Z,100013.91
2022-10-16T05:35:20.469Z,100022.34
2022-10-16T05:37:48.178Z,100017.78
2022-10-16T05:40:15.922Z,100018.44
2022-10-16T05:42:43.308Z,100020.47
2022-10-16T05:45:12.847Z,100010.34
2022-10-16T05:47:40.371Z,100025.53
2022-10-16T05:50:07.900Z,100025.03
2022-10-16T05:52:35.404Z,100026.22
2022-10-16T05:55:02.570Z,100022.50
2022-10-16T05:57:30.037Z,100031.97
2022-10-16T05:59:57.274Z,100048.16
2022-10-16T06:02:24.619Z,100035.19
2022-10-16T06:04:54.699Z,100043.44
2022-10-16T06:07:22.814Z,100057.31
2022-10-16T06:09:51.235Z,100050.88
2022-10-16T06:12:19.297Z,100053.94
2022-10-16T06:14:50.295Z,100058.13
2022-10-16T06:17:17.679Z,100067.44
2022-10-16T06:19:44.884Z,100070.13
2022-10-16T06:22:12.250Z,100076.38
2022-10-16T06:24:39.458Z,100076.88
2022-10-16T06:27:07.583Z,100086.03
2022-10-16T06:29:34.827Z,100105.09
2022-10-16T06:32:02.318Z,100101.34
2022-10-16T06:34:29.469Z,100096.13
2022-10-16T06:36:56.901Z,100099.00
2022-10-16T06:39:24.085Z,100106.94
2022-10-16T06:41:51.571Z,100101.03
2022-10-16T06:44:18.815Z,100103.56
2022-10-16T06:46:46.221Z,100099.50
2022-10-16T06:49:13.367Z,100101.53
2022-10-16T06:51:43.322Z,100106.78
2022-10-16T06:54:10.949Z,100110.50
2022-10-16T06:56:38.748Z,100103.41
2022-10-16T06:59:06.021Z,100102.22
2022-10-16T07:01:34.308Z,100106.19
2022-10-16T07:04:02.238Z,100103.84
2022-10-16T07:06:32.745Z,100105.72
2022-10-16T07:09:03.047Z,100109.91
2022-10-16T07:11:30.639Z,100103.03
2022-10-16T07:13:57.800Z,100108.63
2022-10-16T07:16:28.561Z,100096.13
2022-10-16T07:19:00.762Z,100092.88
2022-10-16T07:21:31.383Z,100097.13
2022-10-16T07:24:05.159Z,100109.09
2022-10-16T07:26:36.065Z,100106.28
2022-10-16T07:29:04.707Z,100109.44
2022-10-16T07:31:32.761Z,100122.13
2022-10-16T07:34:01.485Z,100123.84
2022-10-16T07:36:29.385Z,100122.75
2022-10-16T07:38:59.000Z,100132.72
2022-10-16T07:41:28.838Z,100125.16
2022-10-16T07:43:57.534Z,100131.59
2022-10-16T07:46:24.931Z,100144.25
2022-10-16T07:48:52.144Z,100124.16
2022-10-16T07:51:22.353Z,100140.16
2022-10-16T07:53:50.388Z,100142.06
2022-10-16T07:56:18.794Z,100133.94
2022-10-16T07:58:46.575Z,100139.53
2022-10-16T08:01:16.312Z,100135.97
2022-10-16T08:03:48.310Z,100136.94
2022-10-16T08:06:16.412Z,100154.69
2022-10-16T08:08:43.690Z,100164.66
2022-10-16T08:11:11.265Z,100159.94
2022-10-16T08:13:38.694Z,100178.72
2022-10-16T08:16:09.341Z,100184.44
2022-10-16T08:18:37.498Z,100179.03
2022-10-16T08:21:06.345Z,100180.84
2022-10-16T08:23:34.340Z,100187.25
2022-10-16T08:26:07.851Z,100191.66
2022-10-16T08:28:35.848Z,100188.94
2022-10-16T08:31:14.856Z,100191.66
2022-10-16T08:33:44.606Z,100187.31
2022-10-16T08:36:12.529Z,100193.19
2022-10-16T08:38:40.342Z,100197.78
2022-10-16T08:41:45.151Z,100205.22
2022-10-16T08:44:18.051Z,100202.16
2022-10-16T08:47:23.927Z,100205.56
2022-10-16T08:50:09.690Z,100202.81
2022-10-16T08:52:41.653Z,100194.19
2022-10-16T08:55:17.929Z,100206.50
2022-10-16T08:57:45.420Z,100203.13
2022-10-16T09:00:16.356Z,100208.53
2022-10-16T09:02:54.009Z,100218.06
2022-10-16T09:05:27.010Z,100216.72
2022-10-16T09:08:33.002Z,100208.72
2022-10-16T09:11:40.726Z,100211.56
2022-10-16T09:14:16.028Z,100209.50
2022-10-16T09:16:53.319Z,100198.91
2022-10-16T09:19:59.844Z,100210.81
2022-10-16T09:22:30.206Z,100201.66
2022-10-16T09:25:01.960Z,100211.72
2022-10-16T09:27:29.530Z,100217.63
2022-10-16T09:29:59.671Z,100222.00
2022-10-16T09:32:29.250Z,100221.91
2022-10-16T09:34:58.498Z,100213.28
2022-10-16T09:37:27.238Z,100216.50
2022-10-16T09:39:55.735Z,100221.19
2022-10-16T09:42:33.963Z,100214.75
2022-10-16T09:45:02.015Z,100233.38
2022-10-16T09:47:31.468Z,100229.78
2022-10-16T09:50:03.136Z,100237.75
2022-10-16T09:52:31.326Z,100238.59
2022-10-16T09:55:13.607Z,100231.19
2022-10-16T09:57:54.284Z,100235.59
2022-10-16T10:00:23.633Z,100246.41
2022-10-16T10:02:51.890Z,100239.56
2022-10-16T10:05:24.407Z,100242.59
2022-10-16T10:07:58.601Z,100244.97
2022-10-16T10:10:30.152Z,100244.97
2022-10-16T10:12:58.160Z,100254.91
2022-10-16T10:15:28.962Z,100255.28
2022-10-16T10:17:58.278Z,100262.03
2022-10-16T10:20:29.790Z,100266.13
2022-10-16T10:22:57.669Z,100266.25
2022-10-16T10:25:28.114Z,100275.72
2022-10-16T10:28:26.356Z,100271.28
2022-10-16T10:31:02.940Z,100268.59
2022-10-16T10:34:11.896Z,100285.81
2022-10-16T10:36:41.987Z,100271.97
2022-10-16T10:39:18.071Z,100286.81
2022-10-16T10:42:07.756Z,100286.16
2022-10-16T10:45:05.573Z,100279.19
2022-10-16T10:47:49.817Z,100277.63
2022-10-16T10:50:41.518Z,100283.16
2022-10-16T10:53:17.573Z,100271.94
2022-10-16T10:55:55.314Z,100279.31
2022-10-16T10:58:51.818Z,100278.09
2022-10-16T11:01:49.605Z,100272.28
2022-10-16T11:04:20.087Z,100286.66
2022-10-16T11:06:53.449Z,100285.09
2022-10-16T11:09:38.093Z,100278.44
2022-10-16T11:12:21.256Z,100284.53
2022-10-16T11:14:57.762Z,100281.41
2022-10-16T11:17:31.847Z,100275.47
2022-10-16T11:20:14.563Z,100279.97
2022-10-16T11:23:20.172Z,100274.16
2022-10-16T11:25:49.342Z,100281.81
2022-10-16T11:28:30.903Z,100280.75
2022-10-16T11:31:01.548Z,100284.50
2022-10-16T11:33:54.946Z,100281.69
2022-10-16T11:36:38.648Z,100275.97
2022-10-16T11:39:20.920Z,100285.91
2022-10-16T11:41:54.495Z,100280.94
2022-10-16T11:44:28.601Z,100288.06
2022-10-16T11:47:33.937Z,100282.66
2022-10-16T11:50:03.476Z,100285.13
2022-10-16T11:52:41.960Z,100289.69
2022-10-16T11:55:09.222Z,100286.22
2022-10-16T11:57:50.543Z,100287.03
2022-10-16T12:00:20.511Z,100294.41
2022-10-16T12:03:00.103Z,100293.19
2022-10-16T12:05:57.970Z,100292.44
2022-10-16T12:08:26.184Z,100294.31
2022-10-16T12:10:53.832Z,100296.69
2022-10-16T12:13:33.359Z,100306.19
2022-10-16T12:16:06.628Z,100304.69
2022-10-16T12:18:34.375Z,100299.91
2022-10-16T12:21:08.573Z,100308.53
2022-10-16T12:23:53.943Z,100301.47
2022-10-16T12:26:33.547Z,100302.19
2022-10-16T12:29:31.093Z,100312.34
2022-10-16T12:31:58.759Z,100312.34
2022-10-16T12:34:37.487Z,100308.72
2022-10-16T12:37:15.878Z,100304.03
2022-10-16T12:39:43.504Z,100309.09
2022-10-16T12:42:34.511Z,100312.56
2022-10-16T12:45:02.963Z,100306.69
2022-10-16T12:47:33.241Z,100314.84
2022-10-16T12:50:04.140Z,100320.19
2022-10-16T12:52:39.485Z,100319.34
2022-10-16T12:55:17.627Z,100309.78
2022-10-16T12:58:23.363Z,100322.91
2022-10-16T13:01:13.329Z,100329.75
2022-10-16T13:03:53.753Z,100330.13
2022-10-16T13:06:39.970Z,100319.16
2022-10-16T13:09:44.717Z,100324.13
2022-10-16T13:12:35.848Z,100335.13
2022-10-16T13:15:18.377Z,100328.41
2022-10-16T13:18:07.961Z,100329.06
2022-10-16T13:20:43.309Z,100327.59
2022-10-16T13:23:28.075Z,100328.97
2022-10-16T13:26:32.620Z,100331.13
2022-10-16T13:29:02.527Z,100327.47
2022-10-16T13:31:31.013Z,100339.59
2022-10-16T13:34:00.920Z,100342.47
2022-10-16T13:36:31.364Z,100348.56
2022-10-16T13:39:12.684Z,100343.59
2022-10-16T13:41:40.058Z,100346.22
2022-10-16T13:44:19.529Z,100352.97
2022-10-16T13:46:47.300Z,100355.94
2022-10-16T13:49:18.953Z,100369.47
2022-10-16T13:52:00.749Z,100356.44
2022-10-16T13:54:32.587Z,100355.94
2022-10-16T13:57:15.673Z,100359.72
2022-10-16T13:59:50.388Z,100362.69
2022-10-16T14:02:26.843Z,100371.88
2022-10-16T14:04:55.541Z,100363.81
2022-10-16T14:07:29.986Z,100372.00
2022-10-16T14:10:07.941Z,100376.56
2022-10-16T14:12:36.008Z,100381.06
2022-10-16T14:15:03.804Z,100380.97
2022-10-16T14:17:34.438Z,100383.41
2022-10-16T14:20:07.129Z,100370.63
2022-10-16T14:22:39.056Z,100382.63
2022-10-16T14:25:22.084Z,100382.47
2022-10-16T14:28:04.827Z,100380.97
2022-10-16T14:30:35.879Z,100370.00
2022-10-16T14:33:20.996Z,100380.22
2022-10-16T14:36:06.944Z,100384.34
2022-10-16T14:38:34.698Z,100389.16
2022-10-16T14:41:02.747Z,100397.34
2022-10-16T14:43:36.806Z,100396.13
2022-10-16T14:46:14.927Z,100396.78
2022-10-16T14:48:44.317Z,100400.38
2022-10-16T14:51:16.312Z,100408.28
2022-10-16T14:53:43.583Z,100399.63
2022-10-16T14:56:23.654Z,100403.53
2022-10-16T14:58:52.151Z,100412.94
2022-10-16T15:01:20.424Z,100412.50
2022-10-16T15:03:48.001Z,100410.44
2022-10-16T15:06:16.857Z,100405.16
2022-10-16T15:08:44.552Z,100406.03
2022-10-16T15:11:17.782Z,100405.53
2022-10-16T15:13:45.125Z,100401.66
2022-10-16T15:16:14.541Z,100407.09
2022-10-16T15:18:42.440Z,100405.06
2022-10-16T15:21:23.586Z,100413.69
2022-10-16T15:23:51.796Z,100418.75
2022-10-16T15:26:19.325Z,100418.97
2022-10-16T15:28:46.697Z,100423.69
2022-10-16T15:31:14.382Z,100429.44
2022-10-16T15:33:41.704Z,100437.41
2022-10-16T15:36:09.375Z,100434.38
2022-10-16T15:38:36.734Z,100433.19
2022-10-16T15:41:04.221Z,100439.09
2022-10-16T15:43:31.444Z,100437.69
2022-10-16T15:46:07.433Z,100437.38
2022-10-16T15:48:34.834Z,100433.47
2022-10-16T15:51:06.454Z,100445.44
2022-10-16T15:53:35.044Z,100444.28
2022-10-16T15:56:04.341Z,100445.59
2022-10-16T15:58:31.590Z,100444.09
2022-10-16T16:01:04.534Z,100449.66
2022-10-16T16:03:32.597Z,100456.06
2022-10-16T16:06:05.112Z,100457.53
2022-10-16T16:08:33.620Z,100459.75
2022-10-16T16:11:03.547Z,100465.81
2022-10-16T16:13:30.811Z,100475.31
2022-10-16T16:15:58.333Z,100467.56
2022-10-16T16:18:26.137Z,100462.25
2022-10-16T16:20:54.300Z,100470.88
2022-10-16T16:23:21.626Z,100471.56
2022-10-16T16:26:12.425Z,100487.66
2022-10-16T16:28:41.556Z,100499.59
2022-10-16T16:31:09.648Z,100499.59
2022-10-16T16:33:36.879Z,100497.34
2022-10-16T16:36:11.613Z,100513.44
2022-10-16T16:38:41.982Z,100512.97
2022-10-16T16:41:20.745Z,100511.91
2022-10-16T16:43:54.408Z,100510.88
2022-10-16T16:46:23.515Z,100522.88
2022-10-16T16:48:51.498Z,100516.97
2022-10-16T16:51:20.804Z,100525.03
2022-10-16T16:53:50.525Z,100530.00
2022-10-16T16:56:19.121Z,100532.56
2022-10-16T16:58:47.615Z,100524.00
2022-10-16T17:01:20.384Z,100533.38
2022-10-16T17:03:53.215Z,100534.28
2022-10-16T17:06:22.344Z,100534.88
2022-10-16T17:08:50.607Z,100539.22
2022-10-16T17:11:21.460Z,100541.34
2022-10-16T17:13:52.472Z,100553.53
2022-10-16T17:16:28.356Z,100552.13
2022-10-16T17:18:55.632Z,100547.22
2022-10-16T17:21:23.336Z,100555.56
2022-10-16T17:23:53.375Z,100561.16
2022-10-16T17:26:21.082Z,100557.78
2022-10-16T17:28:52.401Z,100552.84
2022-10-16T17:31:24.329Z,100562.94
2022-10-16T17:33:51.931Z,100569.00
2022-10-16T17:36:20.783Z,100571.56
2022-10-16T17:38:48.542Z,100583.84
2022-10-16T17:41:15.907Z,100582.47
2022-10-16T17:43:43.147Z,100570.59
2022-10-16T17:46:12.168Z,100588.13
2022-10-16T17:48:44.199Z,100583.97
2022-10-16T17:51:18.833Z,100598.69
2022-10-16T17:53:54.689Z,100603.25
2022-10-16T17:56:23.361Z,100590.09
2022-10-16T17:58:52.706Z,100605.25
2022-10-16T18:01:26.170Z,100608.41
2022-10-16T18:03:56.174Z,100617.28
2022-10-16T18:06:24.176Z,100614.66
2022-10-16T18:08:53.041Z,100617.34
2022-10-16T18:11:21.211Z,100627.69
2022-10-16T18:13:48.854Z,100623.22
2022-10-16T18:16:16.429Z,100625.16
2022-10-16T18:18:47.207Z,100634.03
2022-10-16T18:21:17.230Z,100637.91
2022-10-16T18:23:50.803Z,100639.84
2022-10-16T18:26:20.766Z,100632.91
2022-10-16T18:28:48.422Z,100639.78
2022-10-16T18:31:17.703Z,100638.66
2022-10-16T18:33:50.715Z,100643.53
2022-10-16T18:36:21.611Z,100632.72
2022-10-16T18:38:49.444Z,100649.44
2022-10-16T18:41:17.153Z,100653.94
2022-10-16T18:43:44.455Z,100663.00
2022-10-16T18:46:15.497Z,100657.00
2022-10-16T18:48:42.975Z,100663.59
2022-10-16T18:51:20.399Z,100671.88
2022-10-16T18:53:50.337Z,100668.41
2022-10-16T18:56:20.003Z,100676.44
2022-10-16T18:58:51.027Z,100676.34
2022-10-16T19:01:21.814Z,100688.66
2022-10-16T19:03:53.445Z,100694.53
2022-10-16T19:06:21.377Z,100696.53
2022-10-16T19:08:48.607Z,100696.72
2022-10-16T19:11:18.776Z,100696.72
2022-10-16T19:13:50.173Z,100688.16
2022-10-16T19:16:23.901Z,100706.31
2022-10-16T19:18:54.353Z,100699.53
2022-10-16T19:21:22.884Z,100697.41
2022-10-16T19:23:54.742Z,100706.00
2022-10-16T19:26:23.566Z,100711.19
2022-10-16T19:28:51.968Z,100709.66
2022-10-16T19:31:22.692Z,100713.59
2022-10-16T19:33:54.614Z,100714.22
2022-10-16T19:36:25.336Z,100706.63
2022-10-16T19:39:00.795Z,100729.81
2022-10-16T19:41:29.264Z,100717.72
2022-10-16T19:43:56.525Z,100726.59
2022-10-16T19:46:25.615Z,100719.56
2022-10-16T19:49:01.165Z,100732.06
2022-10-16T19:51:29.662Z,100745.97
2022-10-16T19:54:01.887Z,100730.31
2022-10-16T19:56:30.953Z,100744.22
2022-10-16T19:58:59.238Z,100745.59
2022-10-16T20:01:30.450Z,100744.13
2022-10-16T20:03:58.785Z,100760.75
2022-10-16T20:06:27.065Z,100761.00
2022-10-16T20:08:55.488Z,100752.50
2022-10-16T20:11:28.534Z,100759.31
2022-10-16T20:13:56.374Z,100767.59
2022-10-16T20:16:24.685Z,100771.19
2022-10-16T20:18:53.242Z,100767.75
2022-10-16T20:21:26.083Z,100773.06
2022-10-16T20:23:53.700Z,100765.78
2022-10-16T20:26:24.101Z,100771.06
2022-10-16T20:28:52.435Z,100777.38
2022-10-16T20:31:25.931Z,100777.78
2022-10-16T20:33:55.009Z,100785.31
2022-10-16T20:36:24.300Z,100788.44
2022-10-16T20:38:52.376Z,100780.91
2022-10-16T20:41:20.416Z,100785.25
2022-10-16T20:43:50.238Z,100789.56
2022-10-16T20:46:20.933Z,100788.41
2022-10-16T20:48:48.356Z,100791.34
2022-10-16T20:51:19.992Z,100797.69
2022-10-16T20:53:48.776Z,100800.34
2022-10-16T20:56:17.527Z,100794.47
2022-10-16T20:58:46.033Z,100805.28
2022-10-16T21:01:16.298Z,100808.88
2022-10-16T21:03:45.032Z,100801.34
2022-10-16T21:06:15.457Z,100803.75
2022-10-16T21:08:43.751Z,100814.16
2022-10-16T21:11:16.070Z,100816.56
2022-10-16T21:13:43.659Z,100822.38
2022-10-16T21:16:12.580Z,100841.97
2022-10-16T21:18:44.266Z,100834.59
2022-10-16T21:21:23.626Z,100830.03
2022-10-16T21:23:51.880Z,100834.56
2022-10-16T21:26:26.070Z,100839.25
2022-10-16T21:29:01.642Z,100845.22
2022-10-16T21:31:29.922Z,100839.69
2022-10-16T21:33:57.649Z,100860.00
2022-10-16T21:36:27.974Z,100855.84
2022-10-16T21:38:55.907Z,100858.44
2022-10-16T21:41:28.306Z,100864.69
2022-10-16T21:43:57.006Z,100874.03
2022-10-16T21:46:26.851Z,100869.63
2022-10-16T21:48:58.646Z,100871.88
2022-10-16T21:51:28.005Z,100886.72
2022-10-16T21:53:55.860Z,100890.72
2022-10-16T21:56:23.588Z,100891.63
2022-10-16T21:58:50.922Z,100893.94
2022-10-16T22:01:20.820Z,100895.53
2022-10-16T22:03:48.643Z,100895.81
2022-10-16T22:06:17.832Z,100899.91
2022-10-16T22:08:46.849Z,100905.72
2022-10-16T22:11:21.581Z,100903.28
2022-10-16T22:13:54.273Z,100915.78
2022-10-16T22:16:26.491Z,100911.34
2022-10-16T22:18:55.610Z,100922.66
2022-10-16T22:21:23.875Z,100912.97
2022-10-16T22:23:51.726Z,100917.53
2022-10-16T22:26:19.399Z,100921.38
2022-10-16T22:28:46.617Z,100931.19
2022-10-16T22:31:15.239Z,100950.63
2022-10-16T22:33:44.026Z,100953.38
2022-10-16T22:36:14.015Z,100950.75
2022-10-16T22:38:41.525Z,100957.56
2022-10-16T22:41:11.617Z,100957.56
2022-10-16T22:43:44.525Z,100955.69
2022-10-16T22:46:17.652Z,100943.56
2022-10-16T22:48:45.227Z,100944.03
2022-10-16T22:51:19.581Z,100965.94
2022-10-16T22:53:48.441Z,100962.31
2022-10-16T22:56:17.608Z,100951.34
2022-10-16T22:58:45.132Z,100952.81
2022-10-16T23:01:35.551Z,100956.44
2022-10-16T23:04:03.282Z,100958.09
2022-10-16T23:06:30.696Z,100964.44
2022-10-16T23:09:00.558Z,100963.97
2022-10-16T23:11:29.695Z,100966.00
2022-10-16T23:13:57.653Z,100968.59
2022-10-16T23:16:25.843Z,100967.31
2022-10-16T23:18:53.351Z,100958.28
2022-10-16T23:21:23.839Z,100965.13
2022-10-16T23:23:52.497Z,100977.72
2022-10-16T23:26:22.855Z,100972.66
2022-10-16T23:28:50.408Z,100978.31
2022-10-16T23:31:18.931Z,100983.28
2022-10-16T23:33:48.273Z,100969.38
2022-10-16T23:36:21.002Z,100990.66
2022-10-16T23:38:49.825Z,100992.34
2022-10-16T23:41:18.689Z,100992.69
2022-10-16T23:43:46.356Z,100997.72
2022-10-16T23:46:15.102Z,101001.84
2022-10-16T23:48:42.662Z,100998.91
2022-10-16T23:51:10.343Z,101002.78
2022-10-16T23:53:37.787Z,101002.50
2022-10-16T23:56:05.603Z,101008.91
2022-10-16T23:58:32.755Z,101017.16
